Time;durP1;ratioP1;P1;durP2;ratioP2;P2;SDS_P1;SDS_P2;PMS_P1;PMS_P2;Temp;Humidity;BMP_temperature;BMP_pressure;BME280_temperature;BME280_humidity;BME280_pressure;Samples;Min_cycle;Max_cycle;Signal;HPM_P1;HPM_P2
2022/03/29 00:02:03;;;;;;;8.77;6.68;;;3.70;99.90;;;;;;5005563;28;20037;-76
2022/03/29 00:04:28;;;;;;;10.63;6.63;;;3.70;99.90;;;;;;5005759;28;20026;-76
2022/03/29 00:06:54;;;;;;;13.40;6.40;;;3.90;99.90;;;;;;5001113;28;20038;-76
2022/03/29 00:09:21;;;;;;;10.73;5.63;;;3.90;99.90;;;;;;5003935;28;20036;-76
2022/03/29 00:11:47;;;;;;;11.05;6.25;;;3.70;99.90;;;;;;4983595;28;20076;-77
2022/03/29 00:14:13;;;;;;;9.20;5.55;;;3.60;99.90;;;;;;5003143;28;20022;-76
2022/03/29 00:16:39;;;;;;;10.77;5.45;;;3.50;99.90;;;;;;4999223;28;20725;-76
2022/03/29 00:19:06;;;;;;;11.02;6.40;;;3.60;99.90;;;;;;4998351;28;20034;-76
2022/03/29 00:21:31;;;;;;;10.07;5.65;;;3.50;99.90;;;;;;5003264;28;20484;-76
2022/03/29 00:23:57;;;;;;;9.13;6.50;;;3.70;99.90;;;;;;5005652;28;20030;-76
2022/03/29 00:26:23;;;;;;;12.85;6.22;;;4.00;99.90;;;;;;5003257;28;20449;-76
2022/03/29 00:28:49;;;;;;;18.17;5.78;;;4.00;99.90;;;;;;5006820;28;20053;-76
2022/03/29 00:31:19;;;;;;;8.57;5.30;;;3.90;99.90;;;;;;5006022;28;20045;-76
2022/03/29 00:33:49;;;;;;;10.05;5.78;;;3.90;99.90;;;;;;5001814;28;20044;-76
2022/03/29 00:36:16;;;;;;;13.77;6.65;;;3.90;99.90;;;;;;5006006;28;20432;-76
2022/03/29 00:38:42;;;;;;;9.98;5.75;;;3.90;99.90;;;;;;5007966;28;20050;-76
2022/03/29 00:41:07;;;;;;;10.35;5.63;;;3.90;99.90;;;;;;5006678;28;20030;-76
2022/03/29 00:43:33;;;;;;;11.55;5.72;;;4.00;99.90;;;;;;5004201;28;20041;-76
2022/03/29 00:45:59;;;;;;;7.60;5.28;;;4.00;99.90;;;;;;5003325;28;21428;-76
2022/03/29 00:48:24;;;;;;;12.45;5.93;;;4.00;99.90;;;;;;5002378;28;20084;-76
2022/03/29 00:50:51;;;;;;;7.55;4.85;;;3.70;99.90;;;;;;4999834;28;20088;-76
2022/03/29 00:53:17;;;;;;;11.63;5.60;;;3.80;99.90;;;;;;4987625;28;20036;-76
2022/03/29 00:55:44;;;;;;;9.68;5.70;;;3.90;99.90;;;;;;5003384;28;20109;-76
2022/03/29 00:58:11;;;;;;;8.63;4.90;;;4.00;99.90;;;;;;4998847;28;20034;-76
2022/03/29 01:00:38;;;;;;;7.35;4.85;;;4.10;99.90;;;;;;5005118;28;20125;-76
2022/03/29 01:03:04;;;;;;;10.30;4.32;;;4.00;99.90;;;;;;5005997;28;20038;-76
2022/03/29 01:05:31;;;;;;;8.95;5.30;;;3.80;99.90;;;;;;5003624;28;20041;-76
2022/03/29 01:07:57;;;;;;;8.20;5.25;;;3.30;99.90;;;;;;5002988;28;20045;-76
2022/03/29 01:10:24;;;;;;;7.88;4.97;;;2.90;99.90;;;;;;5006062;28;20256;-76
2022/03/29 01:12:51;;;;;;;8.88;5.30;;;2.80;99.90;;;;;;5000238;28;20471;-77
2022/03/29 01:15:18;;;;;;;14.05;6.68;;;2.70;99.90;;;;;;5004119;28;20081;-75
2022/03/29 01:17:46;;;;;;;12.53;6.07;;;2.80;99.90;;;;;;5000952;28;20041;-76
2022/03/29 01:20:22;;;;;;;14.37;6.23;;;2.80;99.90;;;;;;5001229;28;20022;-76
2022/03/29 01:22:49;;;;;;;11.38;5.53;;;3.10;99.90;;;;;;5002594;28;20034;-76
2022/03/29 01:25:21;;;;;;;7.13;4.38;;;3.20;99.90;;;;;;5001246;28;20034;-76
2022/03/29 01:27:50;;;;;;;10.02;5.32;;;3.30;99.90;;;;;;5001409;28;20033;-76
2022/03/29 01:30:17;;;;;;;7.95;4.32;;;3.40;99.90;;;;;;5001420;28;20041;-76
2022/03/29 01:32:47;;;;;;;12.68;5.95;;;3.20;99.90;;;;;;4988058;28;20018;-76
2022/03/29 01:35:16;;;;;;;8.68;4.57;;;3.20;99.90;;;;;;5004012;28;20432;-76
2022/03/29 01:37:42;;;;;;;7.55;5.47;;;3.00;99.90;;;;;;5009282;28;20049;-76
2022/03/29 01:40:10;;;;;;;7.78;4.85;;;2.70;99.90;;;;;;5005479;28;20060;-76
2022/03/29 01:42:36;;;;;;;8.97;5.37;;;2.60;99.90;;;;;;4989396;28;20347;-76
2022/03/29 01:45:02;;;;;;;10.10;5.03;;;2.40;99.90;;;;;;5002567;28;20068;-76
2022/03/29 01:47:28;;;;;;;9.27;4.53;;;2.30;99.90;;;;;;5000324;28;20041;-76
2022/03/29 01:49:53;;;;;;;9.73;5.38;;;2.20;99.90;;;;;;5008119;28;20026;-76
2022/03/29 01:52:19;;;;;;;8.40;5.15;;;2.30;99.90;;;;;;5004969;28;20038;-76
2022/03/29 01:54:45;;;;;;;12.48;4.88;;;2.60;99.90;;;;;;5003017;28;20037;-76
2022/03/29 01:57:12;;;;;;;13.15;4.82;;;2.70;99.90;;;;;;5000115;28;20038;-76
2022/03/29 02:02:22;;;;;;;9.45;5.88;;;2.80;99.90;;;;;;4986513;28;20730;-76
2022/03/29 02:04:48;;;;;;;9.32;5.63;;;2.80;99.90;;;;;;5001440;28;20068;-76
2022/03/29 02:07:14;;;;;;;15.30;5.30;;;2.80;99.90;;;;;;5000628;28;20119;-76
2022/03/29 02:09:39;;;;;;;7.93;5.20;;;2.70;99.90;;;;;;5007153;28;20762;-75
2022/03/29 02:12:06;;;;;;;8.10;4.20;;;2.60;99.90;;;;;;5007940;28;21572;-76
2022/03/29 02:14:34;;;;;;;11.02;5.40;;;2.60;99.90;;;;;;5002151;28;20362;-76
2022/03/29 02:17:00;;;;;;;8.70;6.23;;;2.40;99.90;;;;;;5000279;28;20069;-76
2022/03/29 02:19:26;;;;;;;10.60;6.03;;;2.40;99.90;;;;;;5001598;28;20041;-76
2022/03/29 02:21:52;;;;;;;9.80;5.85;;;2.50;99.90;;;;;;5003879;28;20057;-76
2022/03/29 02:24:17;;;;;;;10.43;5.43;;;2.60;99.90;;;;;;5002392;28;20654;-76
2022/03/29 02:26:43;;;;;;;7.30;4.45;;;2.50;99.90;;;;;;5002016;28;20045;-76
2022/03/29 02:29:09;;;;;;;8.40;5.22;;;2.40;99.90;;;;;;5004567;28;20033;-76
2022/03/29 02:31:35;;;;;;;8.63;5.25;;;2.50;99.90;;;;;;5004789;28;20521;-76
2022/03/29 02:34:01;;;;;;;9.68;4.95;;;2.70;99.90;;;;;;4998168;28;20124;-76
2022/03/29 02:36:27;;;;;;;9.10;5.28;;;2.70;99.90;;;;;;4987057;28;20036;-76
2022/03/29 02:38:53;;;;;;;8.70;4.78;;;2.60;99.90;;;;;;4987094;28;20033;-76
2022/03/29 02:41:18;;;;;;;8.50;5.07;;;2.40;99.90;;;;;;5004809;28;20040;-76
2022/03/29 02:43:44;;;;;;;7.30;4.93;;;2.30;99.90;;;;;;4982091;28;20454;-76
2022/03/29 02:46:10;;;;;;;6.85;5.03;;;2.10;99.90;;;;;;5002372;28;20030;-76
2022/03/29 02:48:35;;;;;;;8.80;5.35;;;2.00;99.90;;;;;;5005478;28;20036;-76
2022/03/29 02:51:01;;;;;;;8.05;4.80;;;2.20;99.90;;;;;;5007448;28;20055;-76
2022/03/29 02:53:27;;;;;;;7.68;4.78;;;2.30;99.90;;;;;;4986922;28;20133;-76
2022/03/29 02:55:53;;;;;;;9.57;5.43;;;2.30;99.90;;;;;;5002062;28;20026;-76
2022/03/29 02:58:18;;;;;;;14.90;5.63;;;2.30;99.90;;;;;;5003515;28;20045;-76
2022/03/29 03:00:44;;;;;;;11.00;5.80;;;2.40;99.90;;;;;;5003209;28;20050;-76
2022/03/29 03:03:10;;;;;;;9.32;5.05;;;2.60;99.90;;;;;;5003788;28;20392;-76
2022/03/29 03:05:35;;;;;;;11.15;6.30;;;2.60;99.90;;;;;;5001089;28;20057;-76
2022/03/29 03:08:02;;;;;;;10.88;5.68;;;2.70;99.90;;;;;;5003552;28;20048;-76
2022/03/29 03:10:28;;;;;;;8.02;5.03;;;2.60;99.90;;;;;;4986686;28;20058;-76
2022/03/29 03:12:54;;;;;;;16.13;5.75;;;2.70;99.90;;;;;;5011451;28;20034;-76
2022/03/29 03:15:21;;;;;;;11.52;6.32;;;2.70;99.90;;;;;;5002489;28;20034;-77
2022/03/29 03:17:49;;;;;;;8.52;4.70;;;2.60;99.90;;;;;;4986991;28;20104;-77
2022/03/29 03:20:15;;;;;;;10.70;5.43;;;2.70;99.90;;;;;;5003497;28;20665;-76
2022/03/29 03:22:42;;;;;;;8.95;4.93;;;2.50;99.90;;;;;;5005611;28;20033;-76
2022/03/29 03:25:09;;;;;;;22.75;6.93;;;2.30;99.90;;;;;;5004983;28;20029;-76
2022/03/29 03:27:34;;;;;;;12.02;5.82;;;2.30;99.90;;;;;;5007587;28;20092;-76
2022/03/29 03:30:02;;;;;;;12.15;5.65;;;2.40;99.90;;;;;;4985633;28;20031;-76
2022/03/29 03:32:28;;;;;;;9.07;5.18;;;2.30;99.90;;;;;;5006282;28;20421;-76
2022/03/29 03:34:54;;;;;;;11.43;5.60;;;2.30;99.90;;;;;;5003690;28;20041;-76
2022/03/29 03:37:19;;;;;;;9.73;5.47;;;2.30;99.90;;;;;;5007201;28;20169;-76
2022/03/29 03:39:45;;;;;;;9.50;5.93;;;2.30;99.90;;;;;;5006136;28;20041;-76
2022/03/29 03:42:10;;;;;;;11.38;5.63;;;2.40;99.90;;;;;;5004329;28;20105;-76
2022/03/29 03:44:37;;;;;;;10.57;5.15;;;2.30;99.90;;;;;;5004347;28;20126;-76
2022/03/29 03:47:04;;;;;;;9.98;5.72;;;2.30;99.90;;;;;;5002353;28;20257;-76
2022/03/29 03:49:30;;;;;;;16.15;6.35;;;2.40;99.90;;;;;;5001896;28;20633;-77
2022/03/29 03:51:56;;;;;;;11.02;6.28;;;2.40;99.90;;;;;;5001360;28;20091;-76
2022/03/29 03:54:22;;;;;;;7.97;5.47;;;2.40;99.90;;;;;;5002702;28;20038;-76
2022/03/29 03:56:48;;;;;;;10.45;5.45;;;2.40;99.90;;;;;;5004199;28;20080;-76
2022/03/29 03:59:13;;;;;;;8.63;4.68;;;2.50;99.90;;;;;;5004388;28;20068;-76
2022/03/29 04:01:39;;;;;;;11.35;5.30;;;2.40;99.90;;;;;;5003213;28;20034;-76
2022/03/29 04:04:05;;;;;;;7.22;4.35;;;2.30;99.90;;;;;;5008496;28;20029;-76
2022/03/29 04:06:30;;;;;;;9.10;6.13;;;2.30;99.90;;;;;;5001216;28;20444;-76
2022/03/29 04:08:56;;;;;;;9.85;5.53;;;2.20;99.90;;;;;;5005985;28;20061;-76
2022/03/29 04:11:22;;;;;;;8.40;5.25;;;2.20;99.90;;;;;;5005083;28;20049;-76
2022/03/29 04:13:47;;;;;;;10.88;6.32;;;2.20;99.90;;;;;;5004451;28;20117;-76
2022/03/29 04:16:13;;;;;;;9.18;5.65;;;2.30;99.90;;;;;;4983276;28;20022;-76
2022/03/29 04:18:39;;;;;;;11.13;5.45;;;2.30;99.90;;;;;;5004850;28;20100;-77
2022/03/29 04:21:07;;;;;;;13.68;6.18;;;2.30;99.90;;;;;;5000876;28;20026;-76
2022/03/29 04:23:35;;;;;;;15.50;6.45;;;2.40;99.90;;;;;;5002413;28;20030;-77
2022/03/29 04:26:01;;;;;;;11.45;5.35;;;2.40;99.90;;;;;;5005996;28;20022;-76
2022/03/29 04:28:27;;;;;;;26.67;6.68;;;2.50;99.90;;;;;;5007753;28;20416;-76
2022/03/29 04:30:55;;;;;;;10.05;5.30;;;2.60;99.90;;;;;;5002364;28;20104;-76
2022/03/29 04:33:21;;;;;;;9.05;5.10;;;2.60;99.90;;;;;;4983412;28;20040;-76
2022/03/29 04:35:47;;;;;;;12.20;5.68;;;2.60;99.90;;;;;;4999217;28;20060;-76
2022/03/29 04:38:12;;;;;;;9.60;5.50;;;2.50;99.90;;;;;;5001744;28;20643;-76
2022/03/29 04:40:38;;;;;;;7.32;5.97;;;2.60;99.90;;;;;;5004381;28;20500;-76
2022/03/29 04:43:04;;;;;;;7.35;5.20;;;2.50;99.90;;;;;;5001398;28;20034;-76
2022/03/29 04:45:30;;;;;;;9.40;4.45;;;2.20;99.90;;;;;;5007611;28;20037;-76
2022/03/29 04:47:55;;;;;;;7.93;5.28;;;2.00;99.90;;;;;;5004934;28;20040;-76
2022/03/29 04:50:21;;;;;;;8.25;4.50;;;1.80;99.90;;;;;;5005963;28;20055;-76
2022/03/29 04:52:47;;;;;;;8.10;3.92;;;1.70;99.90;;;;;;5004899;28;20045;-76
2022/03/29 04:55:15;;;;;;;12.55;5.43;;;1.60;99.90;;;;;;5002369;28;20106;-76
2022/03/29 04:57:41;;;;;;;13.38;4.82;;;1.70;99.90;;;;;;5000811;28;20044;-76
2022/03/29 05:00:09;;;;;;;9.82;5.90;;;1.60;99.90;;;;;;5004403;28;20074;-76
2022/03/29 05:02:35;;;;;;;13.50;6.00;;;1.70;99.90;;;;;;4998886;28;20045;-76
2022/03/29 05:05:01;;;;;;;6.28;3.78;;;1.70;99.90;;;;;;4986186;28;20037;-76
2022/03/29 05:07:28;;;;;;;9.00;5.82;;;1.60;99.90;;;;;;5001375;28;20148;-76
2022/03/29 05:09:55;;;;;;;10.57;4.70;;;1.60;99.90;;;;;;5007124;28;20041;-76
2022/03/29 05:12:20;;;;;;;9.88;4.53;;;1.60;99.90;;;;;;5002451;28;20473;-76
2022/03/29 05:14:46;;;;;;;17.13;6.05;;;1.70;99.90;;;;;;5000938;28;20045;-76
2022/03/29 05:17:11;;;;;;;11.40;5.30;;;1.80;99.90;;;;;;4981682;28;20060;-77
2022/03/29 05:19:37;;;;;;;22.27;7.30;;;1.90;99.90;;;;;;5001479;28;20099;-77
2022/03/29 05:22:03;;;;;;;11.20;6.00;;;2.00;99.90;;;;;;5001707;28;20539;-76
2022/03/29 05:24:28;;;;;;;9.52;5.57;;;2.20;99.90;;;;;;4986603;28;20397;-76
2022/03/29 05:26:54;;;;;;;11.45;5.80;;;2.20;99.90;;;;;;5003746;28;20385;-76
2022/03/29 05:29:20;;;;;;;10.95;6.40;;;2.30;99.90;;;;;;4999728;28;20037;-76
2022/03/29 05:31:46;;;;;;;9.95;5.72;;;2.30;99.90;;;;;;4999496;28;20046;-76
2022/03/29 05:34:13;;;;;;;19.25;5.95;;;2.40;99.90;;;;;;5007574;28;20032;-77
2022/03/29 05:36:44;;;;;;;10.13;5.80;;;2.40;99.90;;;;;;5001315;28;20072;-76
2022/03/29 05:39:10;;;;;;;10.82;6.45;;;2.40;99.90;;;;;;5000564;28;20034;-77
2022/03/29 05:41:35;;;;;;;10.60;5.28;;;2.40;99.90;;;;;;5006180;28;21106;-76
2022/03/29 05:44:01;;;;;;;10.45;5.43;;;2.30;99.90;;;;;;5003057;28;20065;-76
2022/03/29 05:49:11;;;;;;;10.70;6.00;;;2.10;99.90;;;;;;5001852;28;20083;-77
2022/03/29 05:51:37;;;;;;;12.70;6.57;;;2.00;99.90;;;;;;5005472;28;20026;-76
2022/03/29 05:54:04;;;;;;;9.07;5.32;;;2.00;99.90;;;;;;5002164;28;20097;-76
2022/03/29 05:56:30;;;;;;;10.07;7.35;;;1.90;99.90;;;;;;5003494;28;20381;-76
2022/03/29 05:58:56;;;;;;;7.88;5.80;;;2.00;99.90;;;;;;5001729;28;20042;-76
2022/03/29 06:01:21;;;;;;;12.77;6.90;;;2.00;99.90;;;;;;5000967;28;20132;-76
2022/03/29 06:03:47;;;;;;;12.95;6.95;;;2.10;99.90;;;;;;5004413;28;22088;-76
2022/03/29 06:06:13;;;;;;;12.23;6.20;;;2.10;99.90;;;;;;5001577;28;20030;-76
2022/03/29 06:08:39;;;;;;;7.30;4.70;;;2.30;99.90;;;;;;4981944;28;20041;-76
2022/03/29 06:11:07;;;;;;;9.07;5.35;;;2.40;99.90;;;;;;5002110;28;20055;-77
2022/03/29 06:13:32;;;;;;;17.95;8.32;;;2.40;99.90;;;;;;4999300;28;20109;-77
2022/03/29 06:15:58;;;;;;;13.07;7.10;;;2.40;99.90;;;;;;4997327;28;20033;-77
2022/03/29 06:18:24;;;;;;;17.77;8.05;;;2.60;99.90;;;;;;4998636;28;20340;-77
2022/03/29 06:20:50;;;;;;;12.93;7.15;;;2.70;99.90;;;;;;5001574;28;20037;-76
2022/03/29 06:23:16;;;;;;;20.17;7.68;;;2.90;99.90;;;;;;5001072;28;20473;-77
2022/03/29 06:25:42;;;;;;;14.70;7.72;;;3.00;99.90;;;;;;4995972;28;20388;-77
2022/03/29 06:28:10;;;;;;;22.33;7.88;;;3.10;99.90;;;;;;5002001;28;20053;-76
2022/03/29 06:30:36;;;;;;;18.80;8.03;;;3.20;99.90;;;;;;5002967;28;20374;-77
2022/03/29 06:33:02;;;;;;;10.27;5.30;;;3.30;99.90;;;;;;4999741;28;20036;-76
2022/03/29 06:35:28;;;;;;;12.52;6.70;;;3.30;99.90;;;;;;4986948;28;20038;-76
2022/03/29 06:37:58;;;;;;;7.80;4.97;;;3.40;99.90;;;;;;5003606;28;20493;-76
2022/03/29 06:40:26;;;;;;;18.38;7.70;;;3.50;99.90;;;;;;5003239;28;20029;-76
2022/03/29 06:42:55;;;;;;;12.30;6.90;;;3.70;99.90;;;;;;5001614;28;20136;-76
2022/03/29 06:45:20;;;;;;;12.35;6.40;;;3.80;99.90;;;;;;4988049;28;20388;-76
2022/03/29 06:47:47;;;;;;;23.85;8.50;;;4.00;99.90;;;;;;5011392;28;20033;-76
2022/03/29 06:50:13;;;;;;;19.00;8.70;;;4.20;99.90;;;;;;5004361;28;20112;-76
2022/03/29 06:52:45;;;;;;;14.45;8.98;;;4.40;99.90;;;;;;5009750;28;20065;-76
2022/03/29 06:55:13;;;;;;;20.58;9.90;;;4.70;99.90;;;;;;5002793;28;20061;-76
2022/03/29 06:57:39;;;;;;;25.48;11.85;;;5.00;99.90;;;;;;5008572;28;20064;-76
2022/03/29 07:00:07;;;;;;;23.40;11.10;;;5.30;99.90;;;;;;5005654;28;20138;-76
2022/03/29 07:02:34;;;;;;;16.67;8.63;;;5.60;99.90;;;;;;5006316;28;20030;-76
2022/03/29 07:04:59;;;;;;;22.65;10.68;;;5.90;99.90;;;;;;5002923;28;20384;-76
2022/03/29 07:07:25;;;;;;;22.23;9.88;;;6.20;99.90;;;;;;5009513;28;20128;-77
2022/03/29 07:12:59;;;;;;;17.95;8.38;;;6.80;99.90;;;;;;5007553;28;20121;-77
2022/03/29 07:15:25;;;;;;;20.13;8.98;;;7.10;99.90;;;;;;5007079;28;20459;-76
2022/03/29 07:17:51;;;;;;;14.52;8.23;;;7.30;99.70;;;;;;5006545;28;20037;-76
2022/03/29 07:20:19;;;;;;;16.58;6.88;;;7.50;98.90;;;;;;5008389;28;20046;-77
2022/03/29 07:22:45;;;;;;;21.40;9.38;;;7.70;96.60;;;;;;5004451;28;20762;-77
2022/03/29 07:25:12;;;;;;;20.85;9.68;;;8.00;97.80;;;;;;5008386;28;20056;-76
2022/03/29 07:27:38;;;;;;;20.58;9.32;;;8.10;98.00;;;;;;5005384;28;20034;-77
2022/03/29 07:30:05;;;;;;;17.80;9.07;;;8.20;97.60;;;;;;5009706;28;20492;-77
2022/03/29 07:32:31;;;;;;;15.45;9.23;;;8.40;96.50;;;;;;5003036;28;20554;-77
2022/03/29 07:34:57;;;;;;;16.45;7.80;;;8.60;92.90;;;;;;5002399;28;20377;-77
2022/03/29 07:37:23;;;;;;;17.05;8.05;;;8.80;92.50;;;;;;5001321;28;20497;-77
2022/03/29 07:39:53;;;;;;;20.10;8.73;;;9.00;92.90;;;;;;5001784;28;20040;-77
2022/03/29 07:42:20;;;;;;;16.77;8.65;;;9.10;92.30;;;;;;4989399;28;20457;-77
2022/03/29 07:44:46;;;;;;;21.05;8.38;;;9.20;93.30;;;;;;4989180;28;20101;-77
2022/03/29 07:47:12;;;;;;;18.17;8.82;;;9.30;93.50;;;;;;5009049;28;20231;-77
2022/03/29 07:49:38;;;;;;;16.50;8.68;;;9.50;92.10;;;;;;5005397;28;20069;-77
2022/03/29 07:52:04;;;;;;;19.48;9.25;;;9.70;92.20;;;;;;5010263;28;20045;-77
2022/03/29 07:54:29;;;;;;;19.98;9.77;;;9.90;91.10;;;;;;5003563;28;20055;-77
2022/03/29 07:56:56;;;;;;;21.60;9.30;;;10.00;90.80;;;;;;5002440;28;20042;-77
2022/03/29 07:59:22;;;;;;;22.20;10.27;;;10.20;89.50;;;;;;5005252;28;20066;-77
2022/03/29 08:01:47;;;;;;;17.27;8.80;;;10.40;85.50;;;;;;5002427;28;20165;-77
2022/03/29 08:04:13;;;;;;;18.33;9.20;;;10.50;86.60;;;;;;4988196;28;20057;-77
2022/03/29 08:06:39;;;;;;;17.23;8.68;;;10.70;86.00;;;;;;5001289;28;20069;-77
2022/03/29 08:09:05;;;;;;;19.70;8.57;;;10.80;83.90;;;;;;5007889;28;20088;-77
2022/03/29 08:11:30;;;;;;;20.42;8.45;;;11.10;81.30;;;;;;5007404;28;20042;-77
2022/03/29 08:13:56;;;;;;;15.95;8.68;;;11.30;66.20;;;;;;4990276;28;20040;-77
2022/03/29 08:16:22;;;;;;;20.02;8.65;;;11.40;71.60;;;;;;5003261;28;20453;-77
2022/03/29 08:18:48;;;;;;;16.70;8.13;;;11.50;69.10;;;;;;5006841;28;20501;-77
2022/03/29 08:23:59;;;;;;;15.13;6.22;;;11.90;66.60;;;;;;5006810;28;20076;-77
2022/03/29 08:26:25;;;;;;;14.82;7.07;;;12.10;59.30;;;;;;5010555;28;20061;-77
2022/03/29 08:28:50;;;;;;;16.30;7.57;;;12.10;60.80;;;;;;5009902;28;20080;-77
2022/03/29 08:31:17;;;;;;;21.00;8.13;;;12.30;58.20;;;;;;5011713;28;20473;-77
2022/03/29 08:33:43;;;;;;;17.77;7.88;;;12.40;59.70;;;;;;5005132;28;20040;-77
2022/03/29 08:36:09;;;;;;;11.63;5.97;;;12.50;57.70;;;;;;4990521;28;20587;-77
2022/03/29 08:38:35;;;;;;;13.02;6.28;;;12.70;56.20;;;;;;5003074;28;20077;-77
2022/03/29 08:41:00;;;;;;;11.68;6.78;;;12.80;55.20;;;;;;5005681;28;20425;-77
2022/03/29 08:43:27;;;;;;;20.42;8.68;;;12.90;58.80;;;;;;5004443;28;20440;-78
2022/03/29 08:45:54;;;;;;;12.48;6.88;;;12.90;55.40;;;;;;5004886;28;20065;-77
2022/03/29 08:48:25;;;;;;;15.43;7.88;;;13.00;54.30;;;;;;5007591;28;20096;-78
2022/03/29 08:50:52;;;;;;;18.58;9.27;;;13.10;57.10;;;;;;5005336;28;20022;-77
2022/03/29 08:53:20;;;;;;;16.92;8.23;;;13.10;55.60;;;;;;5007084;28;20416;-77
2022/03/29 08:55:47;;;;;;;9.13;5.57;;;13.30;54.60;;;;;;5008724;28;20862;-77
2022/03/29 08:58:14;;;;;;;13.35;7.15;;;13.30;52.10;;;;;;5005827;28;20029;-77
2022/03/29 09:00:42;;;;;;;14.75;7.65;;;13.40;54.50;;;;;;5005426;28;20033;-77
2022/03/29 09:03:08;;;;;;;16.95;8.30;;;13.70;57.00;;;;;;5006860;28;20037;-77
2022/03/29 09:05:34;;;;;;;12.45;6.85;;;13.80;53.90;;;;;;5009274;28;20053;-77
2022/03/29 09:08:03;;;;;;;19.15;8.75;;;13.90;50.70;;;;;;5003742;28;20030;-77
2022/03/29 09:10:48;;;;;;;20.10;8.50;;;13.90;50.70;;;;;;5007117;28;20072;-77
2022/03/29 09:13:29;;;;;;;12.18;7.47;;;14.10;52.20;;;;;;5003895;28;20038;-77
2022/03/29 09:15:57;;;;;;;12.75;7.18;;;14.20;51.70;;;;;;5001846;28;20389;-78
2022/03/29 09:18:24;;;;;;;11.38;6.18;;;14.20;51.90;;;;;;5001285;28;20045;-77
2022/03/29 09:21:12;;;;;;;13.27;5.88;;;14.30;50.00;;;;;;4983191;28;20520;-77
2022/03/29 09:23:39;;;;;;;15.25;9.02;;;14.40;49.10;;;;;;5001935;28;20060;-77
2022/03/29 09:26:06;;;;;;;15.93;7.70;;;14.40;51.10;;;;;;5009989;28;20049;-77
2022/03/29 09:28:37;;;;;;;14.63;7.80;;;14.60;50.10;;;;;;5008828;28;20029;-77
2022/03/29 09:31:17;;;;;;;13.38;6.20;;;14.70;49.20;;;;;;5004108;28;20042;-77
2022/03/29 09:33:43;;;;;;;11.70;5.35;;;14.90;48.40;;;;;;5005386;28;20037;-77
2022/03/29 09:36:12;;;;;;;10.40;6.03;;;14.80;45.20;;;;;;5004240;28;20465;-77
2022/03/29 09:38:43;;;;;;;12.60;6.50;;;15.10;46.10;;;;;;5006802;28;20041;-77
2022/03/29 09:41:26;;;;;;;16.13;7.72;;;15.00;45.20;;;;;;4998378;28;20041;-77
2022/03/29 09:44:00;;;;;;;10.55;6.00;;;15.00;46.10;;;;;;5002410;28;20081;-77
2022/03/29 09:46:26;;;;;;;10.73;6.63;;;15.00;46.10;;;;;;5004274;28;20045;-77
2022/03/29 09:48:58;;;;;;;9.57;5.95;;;15.10;45.30;;;;;;5002583;28;20052;-77
2022/03/29 09:51:26;;;;;;;15.35;7.78;;;15.10;44.90;;;;;;5002448;28;20077;-78
2022/03/29 09:53:54;;;;;;;17.40;8.05;;;15.10;45.50;;;;;;5003234;28;20036;-77
2022/03/29 09:56:26;;;;;;;10.10;5.63;;;15.20;45.20;;;;;;5000761;28;20088;-77
2022/03/29 09:59:24;;;;;;;10.95;6.97;;;15.10;45.80;;;;;;5006594;28;20029;-77
2022/03/29 10:01:53;;;;;;;10.75;7.28;;;15.10;45.20;;;;;;4970859;28;20542;-77
2022/03/29 10:04:21;;;;;;;16.20;4.97;;;15.10;46.20;;;;;;5005480;28;20085;-77
2022/03/29 10:06:48;;;;;;;15.98;7.75;;;15.10;44.70;;;;;;5004539;28;20039;-77
2022/03/29 10:09:32;;;;;;;9.88;5.97;;;15.00;47.20;;;;;;5003205;28;20123;-78
2022/03/29 10:12:03;;;;;;;14.68;7.20;;;15.10;45.20;;;;;;5003789;28;20053;-77
2022/03/29 10:14:31;;;;;;;13.20;7.93;;;15.10;45.00;;;;;;5003250;28;20030;-77
2022/03/29 10:16:58;;;;;;;21.83;9.48;;;15.30;45.70;;;;;;5005473;28;20153;-77
2022/03/29 10:19:24;;;;;;;11.65;6.90;;;15.30;46.30;;;;;;5003402;28;20102;-77
2022/03/29 10:21:56;;;;;;;15.93;8.27;;;15.40;44.70;;;;;;5011247;28;20040;-77
2022/03/29 10:24:23;;;;;;;14.27;6.20;;;15.40;45.00;;;;;;5010022;28;20511;-77
2022/03/29 10:26:50;;;;;;;14.52;7.03;;;15.50;46.50;;;;;;5007732;28;20033;-77
2022/03/29 10:29:16;;;;;;;13.30;6.20;;;15.50;45.30;;;;;;5010566;28;20064;-78
2022/03/29 10:31:51;;;;;;;14.68;7.90;;;15.40;43.90;;;;;;5006103;28;20045;-78
2022/03/29 10:34:25;;;;;;;10.20;7.70;;;15.40;43.70;;;;;;5005273;28;20026;-77
2022/03/29 10:37:07;;;;;;;14.93;6.65;;;15.40;43.40;;;;;;5008034;28;20113;-77
2022/03/29 10:39:51;;;;;;;14.60;7.20;;;15.50;44.00;;;;;;5012897;28;20111;-78
2022/03/29 10:42:36;;;;;;;17.52;8.82;;;15.60;46.10;;;;;;5009906;28;20092;-77
2022/03/29 10:45:25;;;;;;;19.17;8.70;;;15.60;43.60;;;;;;5006777;28;20412;-77
2022/03/29 10:47:55;;;;;;;11.65;6.22;;;15.60;45.80;;;;;;5009952;28;20346;-77
2022/03/29 10:50:21;;;;;;;14.60;6.90;;;15.60;42.90;;;;;;5014281;28;20120;-78
2022/03/29 10:52:49;;;;;;;10.45;6.28;;;15.60;45.30;;;;;;5009374;28;20536;-77
2022/03/29 10:55:28;;;;;;;14.85;7.43;;;15.60;44.50;;;;;;5008424;28;20172;-77
2022/03/29 10:58:10;;;;;;;14.75;7.80;;;15.60;43.80;;;;;;5008451;28;20030;-77
2022/03/29 11:00:39;;;;;;;16.77;8.27;;;15.70;45.00;;;;;;5011517;28;20034;-77
2022/03/29 11:03:21;;;;;;;15.13;7.47;;;15.70;45.20;;;;;;5010658;28;20121;-77
2022/03/29 11:06:07;;;;;;;8.90;5.28;;;15.70;44.80;;;;;;5008074;28;20088;-77
2022/03/29 11:08:37;;;;;;;15.73;8.68;;;15.80;43.50;;;;;;5009605;28;20497;-78
2022/03/29 11:11:05;;;;;;;11.55;7.15;;;15.90;42.70;;;;;;4992602;28;20393;-77
2022/03/29 11:13:34;;;;;;;16.10;7.67;;;15.80;41.80;;;;;;5006948;28;20147;-77
2022/03/29 11:16:20;;;;;;;19.15;8.27;;;15.80;44.20;;;;;;5006520;28;20034;-77
2022/03/29 11:18:45;;;;;;;14.73;8.18;;;16.00;44.40;;;;;;5010224;28;20049;-78
2022/03/29 11:21:31;;;;;;;14.75;8.43;;;16.20;42.20;;;;;;5013049;28;20033;-77
2022/03/29 11:24:01;;;;;;;14.98;8.48;;;16.20;42.20;;;;;;5009157;28;20026;-77
2022/03/29 11:26:27;;;;;;;18.05;8.40;;;16.30;43.50;;;;;;5006432;28;20061;-78
2022/03/29 11:28:58;;;;;;;11.98;6.03;;;16.40;43.30;;;;;;4993485;28;20053;-77
2022/03/29 11:31:36;;;;;;;14.60;6.25;;;16.40;40.30;;;;;;5012061;28;20033;-77
2022/03/29 11:34:02;;;;;;;12.40;5.97;;;16.30;42.00;;;;;;5008001;28;20069;-77
2022/03/29 11:36:28;;;;;;;10.00;5.55;;;16.40;40.90;;;;;;5007635;28;20046;-77
2022/03/29 11:38:54;;;;;;;11.13;6.93;;;16.40;42.40;;;;;;4988123;28;20051;-77
2022/03/29 11:41:27;;;;;;;15.40;7.68;;;16.50;41.60;;;;;;5008661;28;20033;-77
2022/03/29 11:44:00;;;;;;;14.35;7.57;;;16.50;41.10;;;;;;5008065;28;20125;-77
2022/03/29 11:46:46;;;;;;;16.27;7.63;;;16.40;41.30;;;;;;5004577;28;20336;-77
2022/03/29 11:49:12;;;;;;;9.43;5.53;;;16.40;40.10;;;;;;5002676;28;20038;-77
2022/03/29 11:51:37;;;;;;;14.02;8.38;;;16.50;40.70;;;;;;5008503;28;20060;-77
2022/03/29 11:54:03;;;;;;;15.80;6.88;;;16.50;40.50;;;;;;5005264;28;20030;-77
2022/03/29 11:56:36;;;;;;;15.60;7.07;;;16.50;40.90;;;;;;5009100;28;20033;-77
2022/03/29 11:59:05;;;;;;;15.85;7.85;;;16.50;40.70;;;;;;5005730;28;20096;-77
2022/03/29 12:01:34;;;;;;;;;;;16.50;40.50;;;;;;5009143;28;20040;-77
2022/03/29 12:04:07;;;;;;;16.65;8.35;;;16.60;39.30;;;;;;5009842;28;19918;-77
2022/03/29 12:06:46;;;;;;;15.05;7.88;;;16.70;40.90;;;;;;5014793;28;20115;-77
2022/03/29 12:09:16;;;;;;;13.63;8.02;;;16.80;41.30;;;;;;4992010;28;20116;-78
2022/03/29 12:11:45;;;;;;;14.65;7.35;;;17.00;40.90;;;;;;5013330;28;20077;-78
2022/03/29 12:14:15;;;;;;;17.58;8.43;;;17.20;38.90;;;;;;5006296;28;20092;-77
2022/03/29 12:16:43;;;;;;;13.77;7.43;;;17.20;39.50;;;;;;5006806;28;20042;-77
2022/03/29 12:19:11;;;;;;;13.18;7.50;;;17.30;40.40;;;;;;5004470;28;20400;-76
2022/03/29 12:21:37;;;;;;;14.40;7.80;;;17.30;39.20;;;;;;5002162;28;20124;-77
2022/03/29 12:24:03;;;;;;;19.33;9.13;;;17.40;37.70;;;;;;5009573;28;20783;-78
2022/03/29 12:26:30;;;;;;;16.80;8.02;;;17.20;38.40;;;;;;5001738;28;20037;-77
2022/03/29 12:28:57;;;;;;;14.52;8.25;;;17.30;38.20;;;;;;5005243;28;20398;-77
2022/03/29 12:31:24;;;;;;;13.60;7.70;;;17.40;38.00;;;;;;5005834;28;20087;-77
2022/03/29 12:33:52;;;;;;;15.40;7.53;;;17.50;37.20;;;;;;5007323;28;20022;-77
2022/03/29 12:36:18;;;;;;;;;;;17.60;37.90;;;;;;5010078;28;20757;-78
2022/03/29 12:38:59;;;;;;;15.35;7.63;;;17.50;37.40;;;;;;5008091;28;19925;-77
2022/03/29 12:41:38;;;;;;;11.43;7.18;;;17.50;38.20;;;;;;5006971;28;20033;-77
2022/03/29 12:44:06;;;;;;;16.40;8.35;;;17.50;38.20;;;;;;5009595;28;20082;-77
2022/03/29 12:46:32;;;;;;;;;;;17.40;38.20;;;;;;5010854;28;20036;-77
2022/03/29 12:48:58;;;;;;;23.80;9.07;;;17.20;36.10;;;;;;5004025;28;19917;-77
2022/03/29 12:51:28;;;;;;;10.68;6.22;;;17.10;37.80;;;;;;5008745;28;20026;-77
2022/03/29 12:54:00;;;;;;;13.15;6.45;;;17.20;38.30;;;;;;5003804;28;20114;-76
2022/03/29 12:56:33;;;;;;;16.13;7.60;;;17.20;38.00;;;;;;5005984;28;20362;-77
2022/03/29 12:59:00;;;;;;;11.80;6.45;;;17.20;37.20;;;;;;5010693;28;20057;-77
2022/03/29 13:01:30;;;;;;;14.27;4.72;;;17.20;36.60;;;;;;5006102;28;20065;-77